Time;durP1;ratioP1;P1;durP2;ratioP2;P2;SDS_P1;SDS_P2;PMS_P1;PMS_P2;Temp;Humidity;BMP_temperature;BMP_pressure;BME280_temperature;BME280_humidity;BME280_pressure;Samples;Min_cycle;Max_cycle;Signal;HPM_P1;HPM_P2
2022/03/22 00:00:59;;;;;;;14.77;9.68;;;2.80;99.90;;;;;;4968830;28;20214;-82
2022/03/22 00:03:26;;;;;;;16.00;8.45;;;2.70;99.90;;;;;;4967488;28;20188;-87
2022/03/22 00:05:52;;;;;;;20.80;9.98;;;2.70;99.90;;;;;;4967556;28;20184;-85
2022/03/22 00:08:18;;;;;;;13.50;8.75;;;2.70;99.90;;;;;;4972312;28;20463;-87
2022/03/22 00:10:45;;;;;;;17.23;9.87;;;2.60;99.90;;;;;;4976187;28;20204;-84
2022/03/22 00:13:11;;;;;;;22.58;11.85;;;2.60;99.90;;;;;;4968962;28;20184;-87
2022/03/22 00:15:37;;;;;;;18.75;11.10;;;2.60;99.90;;;;;;4970261;28;20192;-87
2022/03/22 00:18:03;;;;;;;19.70;9.80;;;2.60;99.90;;;;;;4973922;28;20215;-85
2022/03/22 00:20:29;;;;;;;15.15;8.23;;;2.70;99.90;;;;;;4972525;28;20668;-85
2022/03/22 00:22:55;;;;;;;20.43;9.37;;;2.70;99.90;;;;;;4972198;28;20196;-84
2022/03/22 00:25:20;;;;;;;17.00;8.53;;;2.60;99.90;;;;;;4977899;28;20463;-87
2022/03/22 00:27:51;;;;;;;14.50;8.00;;;2.60;99.90;;;;;;4969955;28;20192;-86
2022/03/22 00:30:20;;;;;;;16.40;9.00;;;2.60;99.90;;;;;;4970266;28;20569;-86
2022/03/22 00:32:46;;;;;;;12.32;8.07;;;2.50;99.90;;;;;;4979510;28;20198;-85
2022/03/22 00:35:12;;;;;;;16.10;9.52;;;2.50;99.90;;;;;;4971423;28;20180;-86
2022/03/22 00:37:43;;;;;;;16.87;9.23;;;2.50;99.90;;;;;;4975713;28;20200;-84
2022/03/22 00:40:13;;;;;;;14.25;8.57;;;2.50;99.90;;;;;;4969999;28;20176;-87
2022/03/22 00:42:38;;;;;;;13.77;7.90;;;2.40;99.90;;;;;;4969202;28;20201;-87
2022/03/22 00:45:05;;;;;;;14.77;8.70;;;2.40;99.90;;;;;;4968063;28;20938;-86
2022/03/22 00:47:30;;;;;;;15.00;9.55;;;2.40;99.90;;;;;;4968567;28;20541;-85
2022/03/22 00:49:56;;;;;;;18.23;9.40;;;2.30;99.90;;;;;;4969051;28;20272;-83
2022/03/22 00:52:21;;;;;;;14.70;8.50;;;2.30;99.90;;;;;;4967765;28;20208;-86
2022/03/22 00:54:47;;;;;;;15.03;8.70;;;2.30;99.90;;;;;;4969647;28;20199;-83
2022/03/22 00:57:12;;;;;;;22.90;8.60;;;2.20;99.90;;;;;;4972634;28;20181;-84
2022/03/22 01:02:23;;;;;;;15.13;8.88;;;2.30;99.90;;;;;;4970245;28;20282;-86
2022/03/22 01:04:48;;;;;;;15.32;9.20;;;2.30;99.90;;;;;;4966287;28;20244;-87
2022/03/22 01:07:14;;;;;;;16.73;9.90;;;2.30;99.90;;;;;;4966557;28;20211;-86
2022/03/22 01:09:39;;;;;;;12.93;8.70;;;2.30;99.90;;;;;;4981279;28;20222;-86
2022/03/22 01:12:05;;;;;;;17.87;9.63;;;2.30;99.90;;;;;;4971273;28;20213;-84
2022/03/22 01:14:31;;;;;;;13.82;9.13;;;2.20;99.90;;;;;;4972933;28;21218;-84
2022/03/22 01:16:57;;;;;;;19.47;8.60;;;2.20;99.90;;;;;;4965454;28;20192;-86
2022/03/22 01:19:23;;;;;;;16.90;9.33;;;2.30;99.90;;;;;;4967221;28;20296;-86
2022/03/22 01:21:49;;;;;;;17.93;10.50;;;2.30;99.90;;;;;;4980174;28;20459;-83
2022/03/22 01:24:15;;;;;;;16.27;9.43;;;2.40;99.90;;;;;;4972211;28;20886;-85
2022/03/22 01:26:41;;;;;;;13.90;8.27;;;2.30;99.90;;;;;;4967902;28;20176;-84
2022/03/22 01:29:07;;;;;;;18.17;11.10;;;2.30;99.90;;;;;;4971633;28;20192;-87
2022/03/22 01:31:34;;;;;;;20.75;10.60;;;2.30;99.90;;;;;;4967380;28;20220;-86
2022/03/22 01:34:00;;;;;;;17.05;9.77;;;2.30;99.90;;;;;;4970153;28;20180;-85
2022/03/22 01:36:25;;;;;;;14.90;9.23;;;2.20;99.90;;;;;;4965722;28;20195;-85
2022/03/22 01:38:52;;;;;;;15.00;9.30;;;2.10;99.90;;;;;;4966782;28;20563;-88
2022/03/22 01:41:18;;;;;;;23.65;10.38;;;2.10;99.90;;;;;;4965811;28;20227;-86
2022/03/22 01:43:44;;;;;;;17.70;10.10;;;2.10;99.90;;;;;;4968005;28;20212;-85
2022/03/22 01:46:12;;;;;;;19.67;9.97;;;2.00;99.90;;;;;;4982678;28;20180;-85
2022/03/22 01:48:37;;;;;;;18.67;9.75;;;1.90;99.90;;;;;;4967783;28;20243;-85
2022/03/22 01:51:03;;;;;;;14.10;9.70;;;1.90;99.90;;;;;;4967744;28;20201;-85
2022/03/22 01:53:30;;;;;;;16.23;9.40;;;1.90;99.90;;;;;;4976043;28;20188;-84
2022/03/22 01:55:55;;;;;;;18.38;11.98;;;1.90;99.90;;;;;;4972216;28;20190;-84
2022/03/22 01:58:21;;;;;;;18.37;10.40;;;1.80;99.90;;;;;;4969386;28;20192;-85
2022/03/22 02:00:46;;;;;;;15.90;9.57;;;1.80;99.90;;;;;;4967545;28;20266;-83
2022/03/22 02:05:59;;;;;;;19.15;9.63;;;1.70;99.90;;;;;;4969174;28;20179;-85
2022/03/22 02:08:28;;;;;;;18.80;11.00;;;1.70;99.90;;;;;;4970148;28;20196;-83
2022/03/22 02:10:55;;;;;;;18.38;10.60;;;1.70;99.90;;;;;;4963937;28;20208;-83
2022/03/22 02:13:21;;;;;;;20.15;11.63;;;1.70;99.90;;;;;;4966703;28;20263;-82
2022/03/22 02:15:50;;;;;;;20.97;9.47;;;1.70;99.90;;;;;;4992342;28;20207;-85
2022/03/22 02:18:17;;;;;;;17.25;9.88;;;1.70;99.90;;;;;;4973150;28;20247;-85
2022/03/22 02:20:42;;;;;;;15.60;11.10;;;1.90;99.90;;;;;;4969796;28;20617;-85
2022/03/22 02:23:24;;;;;;;16.10;10.23;;;1.90;99.90;;;;;;4968304;28;20184;-85
2022/03/22 02:25:50;;;;;;;16.55;9.30;;;1.80;99.90;;;;;;4973081;28;20171;-83
2022/03/22 02:28:21;;;;;;;19.60;10.27;;;1.70;99.90;;;;;;4975005;28;20206;-84
2022/03/22 02:30:46;;;;;;;19.10;10.30;;;1.60;99.90;;;;;;4969357;28;20270;-80
2022/03/22 02:33:12;;;;;;;24.43;10.90;;;1.60;99.90;;;;;;4967953;28;20232;-82
2022/03/22 02:35:38;;;;;;;15.57;9.70;;;1.60;99.90;;;;;;4971910;28;20189;-80
2022/03/22 02:38:04;;;;;;;16.70;9.80;;;1.50;99.90;;;;;;4970776;28;20230;-80
2022/03/22 02:40:29;;;;;;;15.63;10.10;;;1.50;99.90;;;;;;4972341;28;20672;-82
2022/03/22 02:42:59;;;;;;;14.63;9.27;;;1.50;99.90;;;;;;4979778;28;20414;-81
2022/03/22 02:45:25;;;;;;;19.42;11.48;;;1.50;99.90;;;;;;4970746;28;20436;-81
2022/03/22 02:47:51;;;;;;;25.95;11.15;;;1.50;99.90;;;;;;4980674;28;20175;-83
2022/03/22 02:50:17;;;;;;;16.00;10.13;;;1.40;99.90;;;;;;4973808;28;20320;-83
2022/03/22 02:52:45;;;;;;;20.35;10.90;;;1.40;99.90;;;;;;4969411;28;20515;-82
2022/03/22 02:55:12;;;;;;;17.75;10.40;;;1.40;99.90;;;;;;4968380;28;20187;-82
2022/03/22 02:57:39;;;;;;;17.45;10.88;;;1.40;99.90;;;;;;4970730;28;20207;-82
2022/03/22 03:00:07;;;;;;;17.42;10.25;;;1.30;99.90;;;;;;4967799;28;20208;-82
2022/03/22 03:05:02;;;;;;;18.77;10.75;;;1.40;99.90;;;;;;4967681;28;20232;-87
2022/03/22 03:07:28;;;;;;;21.27;11.07;;;1.30;99.90;;;;;;4952378;28;20187;-84
2022/03/22 03:09:53;;;;;;;19.73;10.17;;;1.00;99.90;;;;;;4968026;28;20188;-85
2022/03/22 03:12:19;;;;;;;23.37;11.80;;;1.10;99.90;;;;;;4947814;28;20204;-85
2022/03/22 03:14:47;;;;;;;17.43;10.30;;;1.10;99.90;;;;;;4951563;28;20185;-87
2022/03/22 03:17:14;;;;;;;18.92;11.07;;;0.90;99.90;;;;;;4952283;28;20432;-87
2022/03/22 03:19:41;;;;;;;19.35;10.40;;;1.10;99.90;;;;;;4966025;28;20275;-84
2022/03/22 03:22:09;;;;;;;19.60;10.75;;;1.10;99.90;;;;;;4966382;28;20219;-81
2022/03/22 03:24:35;;;;;;;20.70;10.90;;;3.30;99.90;;;;;;4961388;28;20196;-88
2022/03/22 03:27:01;;;;;;;17.73;10.75;;;1.00;99.90;;;;;;4949483;28;20189;-88
2022/03/22 03:29:27;;;;;;;18.75;10.38;;;1.00;99.90;;;;;;4954772;28;20181;-87
2022/03/22 03:31:52;;;;;;;23.53;12.53;;;1.00;99.90;;;;;;4965410;28;20211;-87
2022/03/22 03:34:19;;;;;;;17.57;11.00;;;1.00;99.90;;;;;;4962085;28;20271;-86
2022/03/22 03:36:44;;;;;;;21.10;10.90;;;1.00;99.90;;;;;;4957543;28;20224;-85
2022/03/22 03:39:11;;;;;;;20.63;11.50;;;1.10;99.90;;;;;;4947801;28;20215;-86
2022/03/22 03:41:57;;;;;;;27.83;13.75;;;1.00;99.90;;;;;;4967562;28;20467;-84
2022/03/22 03:47:11;;;;;;;23.33;12.98;;;0.90;99.90;;;;;;4967786;28;20206;-88
2022/03/22 03:49:44;;;;;;;21.50;12.27;;;0.80;99.90;;;;;;4956666;28;20188;-87
2022/03/22 03:52:16;;;;;;;21.35;13.02;;;0.80;99.90;;;;;;4963964;28;20216;-86
2022/03/22 03:54:42;;;;;;;25.60;14.52;;;0.70;99.90;;;;;;4960281;28;20195;-88
2022/03/22 03:57:09;;;;;;;25.75;14.65;;;;;;;;;;4957099;28;20204;-86
2022/03/22 03:59:35;;;;;;;23.60;14.02;;;0.70;99.90;;;;;;4972277;28;20272;-84
2022/03/22 04:02:03;;;;;;;22.98;12.48;;;0.70;99.90;;;;;;4969418;28;20231;-85
2022/03/22 04:04:28;;;;;;;27.23;12.70;;;0.70;99.90;;;;;;4964988;28;20250;-85
2022/03/22 04:06:54;;;;;;;21.43;13.47;;;;;;;;;;4952796;28;20262;-86
2022/03/22 04:09:20;;;;;;;21.50;13.38;;;;;;;;;;4957949;28;20192;-86
2022/03/22 04:11:46;;;;;;;18.70;10.38;;;;;;;;;;4962599;28;20257;-87
2022/03/22 04:14:13;;;;;;;27.45;13.80;;;0.60;99.90;;;;;;4960099;28;20291;-88
2022/03/22 04:16:39;;;;;;;18.85;12.93;;;0.40;99.90;;;;;;4948645;28;20243;-83
2022/03/22 04:19:07;;;;;;;26.17;13.68;;;;;;;;;;4976078;28;20195;-84
2022/03/22 04:21:34;;;;;;;23.48;13.73;;;;;;;;;;4968714;28;20212;-88
2022/03/22 04:24:06;;;;;;;25.58;14.82;;;0.50;99.90;;;;;;4966285;28;20195;-86
2022/03/22 04:26:35;;;;;;;23.45;14.27;;;0.50;99.90;;;;;;4969816;28;20184;-86
2022/03/22 04:34:29;;;;;;;26.08;14.63;;;0.60;99.90;;;;;;4967574;28;20376;-83
2022/03/22 04:36:55;;;;;;;25.50;15.03;;;0.60;99.90;;;;;;4955572;28;20264;-87
2022/03/22 04:39:25;;;;;;;22.70;12.70;;;0.60;99.90;;;;;;4973185;28;20199;-85
2022/03/22 04:41:51;;;;;;;22.45;12.23;;;0.60;99.90;;;;;;4973121;28;20217;-86
2022/03/22 04:44:20;;;;;;;26.92;14.65;;;0.40;99.90;;;;;;4963288;28;20184;-85
2022/03/22 04:46:46;;;;;;;32.90;17.27;;;0.50;99.90;;;;;;4953547;28;20858;-85
2022/03/22 04:49:12;;;;;;;25.50;15.07;;;0.40;99.90;;;;;;4952628;28;20298;-86
2022/03/22 04:57:06;;;;;;;23.30;14.43;;;0.40;99.90;;;;;;4960876;28;20624;-84
2022/03/22 04:59:32;;;;;;;32.10;16.13;;;0.30;99.90;;;;;;4953616;28;20212;-86
2022/03/22 05:01:59;;;;;;;30.07;17.00;;;0.40;99.90;;;;;;4963316;28;20222;-86
2022/03/22 05:04:25;;;;;;;29.15;15.85;;;0.30;99.90;;;;;;4958746;28;20192;-82
2022/03/22 05:06:51;;;;;;;26.85;14.93;;;;;;;;;;4965597;28;20421;-86
2022/03/22 05:09:17;;;;;;;31.17;14.63;;;0.40;99.90;;;;;;4964975;28;20184;-86
2022/03/22 05:11:42;;;;;;;23.97;13.40;;;0.30;99.90;;;;;;4958981;28;21249;-85
2022/03/22 05:14:11;;;;;;;25.17;14.83;;;;;;;;;;4947616;28;20252;-83
2022/03/22 05:16:37;;;;;;;18.58;12.48;;;0.30;99.90;;;;;;4955452;28;20729;-88
2022/03/22 05:19:06;;;;;;;27.10;14.63;;;0.00;99.90;;;;;;4959725;28;20223;-85
2022/03/22 05:21:32;;;;;;;29.23;15.10;;;-0.20;99.90;;;;;;4955475;28;20212;-87
2022/03/22 05:23:58;;;;;;;28.92;14.57;;;-0.30;99.90;;;;;;4943485;28;20727;-85
2022/03/22 05:26:27;;;;;;;21.88;14.10;;;-0.30;99.90;;;;;;4959340;28;20177;-83
2022/03/22 05:28:53;;;;;;;29.40;17.42;;;-0.20;99.90;;;;;;4960612;28;20184;-89
2022/03/22 05:31:21;;;;;;;29.55;14.48;;;-0.10;99.90;;;;;;4955206;28;20195;-88
2022/03/22 05:33:48;;;;;;;25.70;14.70;;;-0.10;99.90;;;;;;4960845;28;20274;-85
2022/03/22 05:36:13;;;;;;;32.78;16.77;;;0.10;99.90;;;;;;4952011;28;20192;-86
2022/03/22 05:38:40;;;;;;;27.70;15.93;;;;;;;;;;4946809;28;20212;-84
2022/03/22 05:41:07;;;;;;;34.88;16.70;;;0.40;99.90;;;;;;4961893;28;21159;-87
2022/03/22 05:43:32;;;;;;;33.08;18.17;;;0.70;99.90;;;;;;4949156;28;20219;-85
2022/03/22 05:45:58;;;;;;;31.23;16.40;;;1.30;99.90;;;;;;4946373;28;20588;-86
2022/03/22 05:48:24;;;;;;;33.03;23.63;;;1.90;99.90;;;;;;4945665;28;20300;-88
2022/03/22 05:50:50;;;;;;;29.60;19.52;;;2.80;99.90;;;;;;4949536;28;20275;-86
2022/03/22 05:53:16;;;;;;;31.50;16.50;;;3.90;99.90;;;;;;4953029;28;20230;-88
2022/03/22 05:55:41;;;;;;;27.05;17.13;;;5.00;99.90;;;;;;4946471;28;20443;-86
2022/03/22 05:58:08;;;;;;;24.43;12.90;;;6.20;99.90;;;;;;4949490;28;20194;-87
2022/03/22 06:00:34;;;;;;;26.27;13.52;;;7.20;99.90;;;;;;4947273;28;20192;-87
2022/03/22 06:03:00;;;;;;;19.40;12.02;;;8.30;99.90;;;;;;4941209;28;20243;-85
2022/03/22 06:05:28;;;;;;;24.10;13.18;;;9.40;99.90;;;;;;4955091;28;20195;-85
2022/03/22 06:07:55;;;;;;;22.73;13.07;;;11.80;99.90;;;;;;4938555;28;20280;-85
2022/03/22 06:10:21;;;;;;;27.05;15.52;;;11.10;99.90;;;;;;4945903;28;20187;-86
2022/03/22 06:12:52;;;;;;;19.23;14.52;;;11.70;94.70;;;;;;4957946;28;20218;-83
2022/03/22 06:15:23;;;;;;;23.45;14.95;;;12.30;92.90;;;;;;4964791;28;20179;-83
2022/03/22 06:18:00;;;;;;;26.30;16.05;;;13.30;91.40;;;;;;4965895;28;20195;-82
2022/03/22 06:20:28;;;;;;;26.80;14.80;;;14.10;82.60;;;;;;4947829;28;22667;-85
2022/03/22 06:22:56;;;;;;;24.40;16.20;;;14.40;76.40;;;;;;4954174;28;20223;-84
2022/03/22 06:25:24;;;;;;;23.75;16.38;;;14.30;70.80;;;;;;4961738;28;20187;-86
2022/03/22 06:28:27;;;;;;;24.77;16.17;;;14.40;71.80;;;;;;4967796;28;20207;-87
2022/03/22 06:34:58;;;;;;;;;;;;;;;;;;;;;
2022/03/22 06:37:25;;;;;;;21.73;16.20;;;;;;;;;;4970156;28;20523;-88
2022/03/22 06:39:51;;;;;;;22.70;14.53;;;;;;;;;;4955552;28;20543;-84
2022/03/22 06:42:17;;;;;;;21.53;15.33;;;;;;;;;;4958540;28;20460;-86
2022/03/22 06:44:46;;;;;;;27.03;16.17;;;15.00;56.70;;;;;;4956424;28;20522;-83
2022/03/22 06:47:12;;;;;;;26.77;17.10;;;;;;;;;;4939617;28;20475;-87
2022/03/22 06:49:48;;;;;;;25.50;15.37;;;;;;;;;;4955975;28;20223;-85
2022/03/22 06:52:14;;;;;;;31.25;16.35;;;;;;;;;;4951463;28;20471;-86
2022/03/22 06:54:55;;;;;;;22.43;15.57;;;14.30;57.80;;;;;;4955297;28;20186;-88
2022/03/22 06:57:21;;;;;;;27.15;16.10;;;;;;;;;;4949439;28;20470;-86
2022/03/22 07:00:15;;;;;;;25.45;16.45;;;15.10;59.40;;;;;;4954234;28;20227;-85
2022/03/22 07:03:24;;;;;;;32.30;17.27;;;16.00;58.00;;;;;;4952663;28;20208;-85
2022/03/22 07:06:00;;;;;;;29.00;14.90;;;17.10;56.30;;;;;;4928278;28;20375;-87
2022/03/22 07:08:39;;;;;;;26.13;16.00;;;17.70;54.90;;;;;;4941149;28;20457;-85
2022/03/22 07:11:59;;;;;;;27.57;16.27;;;18.30;53.20;;;;;;4951607;28;20452;-85
2022/03/22 07:14:40;;;;;;;26.67;17.00;;;18.20;53.00;;;;;;4937539;28;20454;-84
2022/03/22 07:17:45;;;;;;;;;;;;;;;;;;;;;
2022/03/22 07:24:22;;;;;;;20.13;15.73;;;21.30;48.00;;;;;;5031452;23;20513;-87
2022/03/22 07:27:20;;;;;;;24.60;15.60;;;19.60;46.40;;;;;;4977879;28;21034;-84
2022/03/22 07:40:21;;;;;;;27.13;19.10;;;20.00;48.30;;;;;;4957014;28;20522;-84
2022/03/22 07:56:32;;;;;;;26.30;19.03;;;20.90;48.50;;;;;;5040506;23;20451;-85
2022/03/22 08:06:35;;;;;;;25.40;17.23;;;21.10;47.00;;;;;;4874360;29;20902;-85
2022/03/22 08:14:54;;;;;;;26.90;18.17;;;21.80;46.30;;;;;;4959407;28;20967;-82
2022/03/22 08:17:19;;;;;;;22.80;16.63;;;23.90;46.50;;;;;;4962336;28;20481;-84
2022/03/22 08:19:45;;;;;;;21.00;16.30;;;25.60;43.30;;;;;;4947177;28;20199;-81
2022/03/22 08:22:10;;;;;;;22.10;18.07;;;26.10;40.30;;;;;;4963292;28;20231;-82
2022/03/22 08:24:36;;;;;;;21.50;15.33;;;26.10;40.90;;;;;;4946872;28;20279;-84
2022/03/22 08:27:02;;;;;;;19.57;16.17;;;;;;;;;;4959894;28;20259;-83
2022/03/22 08:29:29;;;;;;;17.93;15.63;;;24.60;39.80;;;;;;4956615;28;20198;-81
2022/03/22 08:31:54;;;;;;;20.30;15.50;;;23.60;39.20;;;;;;4951707;28;20432;-82
2022/03/22 08:34:20;;;;;;;19.30;15.87;;;22.40;39.20;;;;;;4935548;29;20467;-81
2022/03/22 08:36:45;;;;;;;21.13;15.50;;;21.50;39.70;;;;;;4952660;28;20188;-82
2022/03/22 08:39:11;;;;;;;24.27;16.33;;;21.20;40.90;;;;;;4949141;28;20203;-83
2022/03/22 08:41:37;;;;;;;23.47;17.30;;;21.30;41.50;;;;;;4959562;28;20242;-82
2022/03/22 08:44:02;;;;;;;25.83;16.13;;;20.70;41.60;;;;;;4948055;28;20184;-80
2022/03/22 08:46:28;;;;;;;30.00;17.23;;;20.70;42.10;;;;;;4953470;28;20239;-81
2022/03/22 08:48:55;;;;;;;18.30;14.60;;;20.80;42.50;;;;;;4932981;29;20471;-81
2022/03/22 08:51:24;;;;;;;21.47;15.90;;;21.10;42.00;;;;;;4955234;28;20203;-81
2022/03/22 08:53:50;;;;;;;20.87;16.73;;;20.60;42.30;;;;;;4960402;28;20835;-82
2022/03/22 08:56:15;;;;;;;20.07;14.80;;;20.30;42.00;;;;;;4960928;28;20447;-82
2022/03/22 08:58:41;;;;;;;22.43;16.70;;;19.90;42.00;;;;;;4963052;28;20463;-81
2022/03/22 09:01:07;;;;;;;21.80;17.00;;;18.70;42.30;;;;;;4964058;28;20210;-82
2022/03/22 09:03:35;;;;;;;22.10;15.60;;;;;;;;;;4946707;28;20208;-81
2022/03/22 09:06:12;;;;;;;20.73;14.97;;;19.70;42.40;;;;;;4948606;28;20432;-84
2022/03/22 09:08:40;;;;;;;23.80;15.77;;;20.40;43.60;;;;;;4939345;28;20442;-81
2022/03/22 09:11:07;;;;;;;20.73;15.17;;;21.00;42.60;;;;;;4963408;28;20460;-83
2022/03/22 09:13:33;;;;;;;22.47;15.10;;;20.60;41.20;;;;;;4944801;28;20447;-83
2022/03/22 09:15:59;;;;;;;23.50;15.57;;;20.70;41.90;;;;;;4960968;28;20439;-82
2022/03/22 09:18:25;;;;;;;17.10;13.60;;;20.60;41.50;;;;;;4946587;28;20239;-80
2022/03/22 09:20:51;;;;;;;20.00;13.93;;;20.50;41.60;;;;;;4960249;28;20903;-83
2022/03/22 09:23:17;;;;;;;27.27;15.50;;;20.50;42.20;;;;;;4965107;28;20435;-84
2022/03/22 09:25:43;;;;;;;22.20;15.13;;;20.70;40.30;;;;;;4961431;28;21141;-83
2022/03/22 09:28:10;;;;;;;22.70;16.47;;;20.70;40.40;;;;;;4950858;28;20191;-82
2022/03/22 09:30:38;;;;;;;27.13;15.37;;;20.80;41.30;;;;;;4944370;28;20510;-83
2022/03/22 09:33:07;;;;;;;25.30;15.10;;;20.70;41.50;;;;;;4960705;28;20432;-84
2022/03/22 09:35:34;;;;;;;22.30;14.97;;;20.30;40.10;;;;;;4944462;28;20476;-84
2022/03/22 09:38:00;;;;;;;18.20;13.07;;;20.20;40.50;;;;;;4962978;28;20531;-83
2022/03/22 09:40:27;;;;;;;19.80;15.20;;;20.00;41.60;;;;;;4958509;28;20431;-81
2022/03/22 09:42:55;;;;;;;21.17;14.50;;;19.90;42.20;;;;;;4958944;28;20462;-84
2022/03/22 09:45:26;;;;;;;21.90;14.57;;;19.80;42.80;;;;;;4959244;28;20436;-82
2022/03/22 09:47:52;;;;;;;18.63;15.10;;;20.00;42.40;;;;;;4958378;28;20455;-82
2022/03/22 09:50:20;;;;;;;20.53;15.97;;;19.50;40.70;;;;;;4950699;28;20440;-82
2022/03/22 09:52:45;;;;;;;29.10;14.93;;;19.20;41.50;;;;;;4946970;28;21012;-82
2022/03/22 09:55:16;;;;;;;19.33;13.93;;;19.20;41.70;;;;;;4949009;28;20452;-82
2022/03/22 09:57:42;;;;;;;23.13;14.43;;;19.70;42.20;;;;;;4961190;28;20759;-80
2022/03/22 10:00:09;;;;;;;26.70;15.53;;;20.60;40.90;;;;;;4958519;28;20463;-83
2022/03/22 10:02:35;;;;;;;20.10;13.80;;;20.60;41.20;;;;;;4944300;28;20539;-81
2022/03/22 10:05:02;;;;;;;19.80;13.90;;;20.50;39.90;;;;;;4955331;28;20529;-84
2022/03/22 10:07:27;;;;;;;18.40;14.20;;;19.80;39.70;;;;;;4958551;28;20176;-81
2022/03/22 10:09:58;;;;;;;21.43;13.20;;;20.70;41.20;;;;;;4950497;28;20462;-83
2022/03/22 10:12:32;;;;;;;19.90;15.27;;;19.20;39.00;;;;;;4955163;28;20207;-83
2022/03/22 10:15:11;;;;;;;24.57;14.30;;;18.70;40.40;;;;;;4961432;28;20914;-82
2022/03/22 10:17:41;;;;;;;19.93;13.60;;;17.90;42.20;;;;;;4958945;28;20812;-80
2022/03/22 10:20:08;;;;;;;23.13;15.63;;;16.80;44.00;;;;;;4959781;28;20462;-82
2022/03/22 10:22:36;;;;;;;23.27;15.63;;;16.70;44.30;;;;;;4957765;28;20483;-82
2022/03/22 10:25:05;;;;;;;21.93;13.63;;;16.10;45.00;;;;;;4956370;28;20436;-81
2022/03/22 10:27:36;;;;;;;20.93;14.60;;;15.50;45.30;;;;;;4956855;28;21153;-83
2022/03/22 10:30:05;;;;;;;22.43;14.67;;;15.40;47.10;;;;;;4938347;29;20444;-81
2022/03/22 10:32:32;;;;;;;25.10;14.87;;;14.60;47.20;;;;;;4949686;28;20436;-80
2022/03/22 10:35:10;;;;;;;22.43;16.10;;;14.60;47.60;;;;;;4950361;28;20411;-80
2022/03/22 10:37:36;;;;;;;20.97;14.37;;;14.60;47.00;;;;;;4959439;28;20445;-82
2022/03/22 10:40:02;;;;;;;19.87;13.27;;;14.60;48.10;;;;;;4960043;28;20502;-80
2022/03/22 10:42:29;;;;;;;24.43;14.87;;;14.70;49.30;;;;;;4959850;28;20554;-82
2022/03/22 10:44:58;;;;;;;22.50;14.10;;;14.90;49.20;;;;;;4948819;28;20548;-81
2022/03/22 10:47:26;;;;;;;30.33;13.40;;;14.90;48.00;;;;;;4958430;28;20913;-84
2022/03/22 10:50:06;;;;;;;22.40;14.90;;;14.90;49.60;;;;;;4945279;28;20962;-82
2022/03/22 10:52:32;;;;;;;25.80;14.83;;;14.90;50.90;;;;;;4960686;28;20203;-85
2022/03/22 10:54:59;;;;;;;23.63;14.50;;;15.00;49.80;;;;;;4952499;28;20511;-80
2022/03/22 10:57:37;;;;;;;22.40;14.33;;;14.90;48.10;;;;;;4953558;28;20422;-83
2022/03/22 11:00:08;;;;;;;25.03;15.73;;;15.00;48.50;;;;;;4953353;29;20447;-83
2022/03/22 11:02:37;;;;;;;23.23;14.67;;;15.20;48.10;;;;;;4957561;28;20451;-84
2022/03/22 11:05:03;;;;;;;20.67;15.20;;;15.30;48.20;;;;;;4964424;28;20809;-84
2022/03/22 11:07:33;;;;;;;28.03;15.30;;;15.20;48.00;;;;;;4967010;28;20415;-81
2022/03/22 11:09:59;;;;;;;23.60;15.43;;;15.20;46.00;;;;;;4971097;28;20482;-83
2022/03/22 11:12:27;;;;;;;22.77;15.30;;;15.00;46.00;;;;;;4961902;28;21417;-83
2022/03/22 11:14:57;;;;;;;22.00;14.70;;;15.00;46.90;;;;;;4948787;28;20525;-83
2022/03/22 11:17:25;;;;;;;21.63;15.40;;;14.90;47.50;;;;;;4950610;28;20436;-83
2022/03/22 11:19:51;;;;;;;20.50;15.80;;;15.20;48.30;;;;;;4957874;28;20471;-81
2022/03/22 11:22:18;;;;;;;21.20;15.47;;;15.40;48.40;;;;;;4961102;28;20554;-85
2022/03/22 11:24:43;;;;;;;23.73;14.53;;;15.50;46.90;;;;;;4942515;28;20527;-82
2022/03/22 11:27:10;;;;;;;22.30;14.50;;;15.20;47.00;;;;;;4962901;28;20518;-83
2022/03/22 11:29:38;;;;;;;19.17;14.30;;;15.10;45.30;;;;;;4945323;28;20446;-83
2022/03/22 11:35:00;;;;;;;21.20;14.60;;;15.50;44.50;;;;;;4942869;28;20446;-82
2022/03/22 11:37:31;;;;;;;30.27;15.83;;;15.50;44.10;;;;;;4962310;28;20485;-81
2022/03/22 11:42:54;;;;;;;21.17;14.53;;;15.70;46.60;;;;;;4958824;28;20454;-83
2022/03/22 11:45:20;;;;;;;22.50;15.53;;;15.90;46.70;;;;;;4956085;28;20881;-83
2022/03/22 11:47:49;;;;;;;24.23;16.10;;;16.10;44.80;;;;;;4960817;28;20427;-82
2022/03/22 11:50:18;;;;;;;26.97;15.53;;;16.10;44.00;;;;;;4943836;28;20275;-83
2022/03/22 11:52:45;;;;;;;24.83;15.57;;;16.10;44.80;;;;;;4960273;28;20465;-81
2022/03/22 11:55:18;;;;;;;23.00;15.53;;;16.00;45.20;;;;;;4941263;28;20502;-82
2022/03/22 11:57:51;;;;;;;19.53;15.33;;;16.20;45.80;;;;;;4961166;28;20439;-82
2022/03/22 12:00:40;;;;;;;20.30;15.57;;;16.20;46.10;;;;;;4942857;28;20830;-84
2022/03/22 12:03:09;;;;;;;28.10;16.70;;;16.20;45.30;;;;;;4957361;28;20446;-82
2022/03/22 12:05:35;;;;;;;20.23;15.33;;;16.20;46.40;;;;;;4960382;28;20435;-81
2022/03/22 12:08:06;;;;;;;22.93;15.90;;;16.10;45.30;;;;;;4951611;28;21021;-82
2022/03/22 12:10:32;;;;;;;22.53;15.37;;;16.10;43.70;;;;;;4956135;28;20665;-83
2022/03/22 12:12:58;;;;;;;20.33;15.60;;;16.20;44.40;;;;;;4962658;28;20505;-80
2022/03/22 12:15:24;;;;;;;22.30;15.50;;;15.90;46.20;;;;;;4961488;28;20563;-81
2022/03/22 12:17:51;;;;;;;19.90;14.60;;;16.00;45.40;;;;;;4960596;28;20523;-83
2022/03/22 12:20:19;;;;;;;23.33;15.67;;;16.00;45.80;;;;;;4958487;28;21031;-82
2022/03/22 12:22:48;;;;;;;22.40;15.40;;;16.00;45.10;;;;;;4955777;28;20444;-80
2022/03/22 12:25:17;;;;;;;22.17;14.87;;;16.10;44.80;;;;;;4952148;28;20463;-82
2022/03/22 12:28:04;;;;;;;19.53;14.93;;;16.10;45.00;;;;;;4945582;28;20523;-84
2022/03/22 12:30:31;;;;;;;23.27;15.43;;;16.30;44.20;;;;;;4957770;28;20518;-82
2022/03/22 12:32:59;;;;;;;27.30;14.43;;;16.10;43.90;;;;;;4944950;28;21042;-83
2022/03/22 12:35:25;;;;;;;22.70;15.50;;;15.90;44.40;;;;;;4962635;28;20466;-83
2022/03/22 12:37:52;;;;;;;20.53;14.83;;;16.20;45.70;;;;;;4960354;28;20503;-83
2022/03/22 12:40:19;;;;;;;21.67;15.40;;;16.60;44.90;;;;;;4960001;28;20503;-81
2022/03/22 12:42:46;;;;;;;21.70;16.30;;;16.60;44.70;;;;;;4963398;28;20697;-82
2022/03/22 12:45:12;;;;;;;22.00;14.57;;;16.80;45.20;;;;;;4960325;28;20439;-84
2022/03/22 12:47:39;;;;;;;22.10;15.20;;;17.00;44.10;;;;;;4960707;28;20424;-84
2022/03/22 12:50:07;;;;;;;19.00;15.33;;;17.20;43.60;;;;;;4960344;28;20444;-81
2022/03/22 12:52:32;;;;;;;18.63;15.40;;;17.20;42.70;;;;;;4941856;28;20529;-81
2022/03/22 12:54:58;;;;;;;20.53;15.13;;;17.10;43.50;;;;;;4960836;28;20447;-81
2022/03/22 12:57:24;;;;;;;25.20;14.80;;;17.00;45.40;;;;;;4966935;28;20905;-81
2022/03/22 12:59:50;;;;;;;22.47;17.10;;;17.30;43.80;;;;;;4958457;28;20510;-82
2022/03/22 13:02:18;;;;;;;21.33;15.40;;;17.60;42.70;;;;;;4957363;28;20456;-83
2022/03/22 13:04:47;;;;;;;20.70;15.13;;;17.70;43.60;;;;;;4957491;28;20435;-81
2022/03/22 13:07:24;;;;;;;21.70;15.20;;;17.70;42.90;;;;;;4958609;28;20464;-82
2022/03/22 13:12:36;;;;;;;19.30;15.30;;;17.60;42.50;;;;;;4958021;28;20557;-82
2022/03/22 13:15:06;;;;;;;21.40;15.30;;;17.30;42.40;;;;;;4958789;28;20804;-81
2022/03/22 13:17:33;;;;;;;22.27;15.87;;;17.00;42.80;;;;;;4942511;28;20191;-81
2022/03/22 13:20:04;;;;;;;20.47;14.70;;;16.80;44.90;;;;;;4961219;28;21027;-82
2022/03/22 13:22:30;;;;;;;24.90;16.53;;;17.30;41.60;;;;;;4959773;28;20848;-81
2022/03/22 13:25:06;;;;;;;21.90;16.13;;;17.30;42.10;;;;;;4959803;28;20435;-83
2022/03/22 13:27:32;;;;;;;20.67;15.60;;;17.50;42.30;;;;;;4949607;28;20175;-80
2022/03/22 13:30:00;;;;;;;20.63;14.30;;;17.70;43.10;;;;;;4970130;28;20446;-83
2022/03/22 13:32:31;;;;;;;22.63;15.83;;;17.50;43.00;;;;;;4961578;28;20196;-81
2022/03/22 13:35:02;;;;;;;25.73;15.90;;;17.40;43.20;;;;;;4959291;28;20445;-81
2022/03/22 13:37:29;;;;;;;24.20;15.27;;;17.50;43.80;;;;;;4960571;28;20447;-79
2022/03/22 13:40:07;;;;;;;25.63;16.07;;;17.40;43.20;;;;;;4961109;28;20538;-83
2022/03/22 13:42:33;;;;;;;19.97;14.57;;;17.30;41.50;;;;;;4962790;28;20571;-82
2022/03/22 13:45:00;;;;;;;20.50;14.27;;;17.30;41.90;;;;;;4962124;28;20510;-82
2022/03/22 13:47:41;;;;;;;23.27;15.43;;;17.60;40.80;;;;;;4951823;28;20203;-83
2022/03/22 13:50:14;;;;;;;22.87;16.70;;;17.50;40.70;;;;;;4963309;28;20439;-83
2022/03/22 13:52:42;;;;;;;20.47;15.43;;;17.60;41.40;;;;;;4962342;28;20479;-82
2022/03/22 13:55:15;;;;;;;22.37;15.37;;;17.60;41.10;;;;;;4959293;28;20949;-82
2022/03/22 13:58:00;;;;;;;30.50;16.80;;;17.60;41.60;;;;;;4958721;28;21097;-82
2022/03/22 14:00:33;;;;;;;26.90;17.07;;;17.60;42.20;;;;;;4961440;28;20454;-84
2022/03/22 14:03:05;;;;;;;21.77;15.30;;;17.80;43.30;;;;;;4949153;28;20462;-81